createdAt,value
2018-04-29T00:01:39.384Z,17.87
2018-04-29T00:04:07.702Z,15.83
2018-04-29T00:06:36.026Z,13.93
2018-04-29T00:09:04.354Z,13.73
2018-04-29T00:11:32.681Z,14.60
2018-04-29T00:14:01.028Z,14.80
2018-04-29T00:16:29.441Z,14.70
2018-04-29T00:18:57.803Z,13.90
2018-04-29T00:21:26.123Z,14.10
2018-04-29T00:23:54.458Z,13.40
2018-04-29T00:26:22.826Z,14.57
2018-04-29T00:28:51.164Z,13.53
2018-04-29T00:31:19.503Z,13.53
2018-04-29T00:33:47.822Z,16.10
2018-04-29T00:36:16.341Z,17.23
2018-04-29T00:38:44.669Z,15.33
2018-04-29T00:41:12.994Z,16.27
2018-04-29T00:43:41.324Z,15.93
2018-04-29T00:46:09.639Z,15.97
2018-04-29T00:48:37.980Z,19.43
2018-04-29T00:51:06.343Z,19.27
2018-04-29T00:53:34.670Z,22.20
2018-04-29T00:56:03.002Z,21.30
2018-04-29T00:58:31.365Z,20.57
2018-04-29T01:00:59.820Z,18.83
2018-04-29T01:03:28.217Z,18.70
2018-04-29T01:05:56.538Z,16.00
2018-04-29T01:08:25.313Z,15.80
2018-04-29T01:10:53.638Z,17.97
2018-04-29T01:13:21.964Z,16.50
2018-04-29T01:15:50.287Z,15.97
2018-04-29T01:18:18.611Z,17.50
2018-04-29T01:20:46.946Z,17.00
2018-04-29T01:23:15.335Z,17.83
2018-04-29T01:25:43.634Z,17.37
2018-04-29T01:28:11.995Z,19.67
2018-04-29T01:30:40.314Z,18.80
2018-04-29T01:33:08.650Z,20.73
2018-04-29T01:35:38.363Z,20.13
2018-04-29T01:38:06.844Z,20.37
2018-04-29T01:40:35.164Z,19.27
2018-04-29T01:43:03.577Z,21.73
2018-04-29T01:45:31.914Z,21.00
2018-04-29T01:48:00.220Z,20.80
2018-04-29T01:50:28.549Z,21.90
2018-04-29T01:52:56.877Z,21.73
2018-04-29T01:55:25.247Z,22.43
2018-04-29T01:57:53.757Z,21.50
2018-04-29T02:00:22.120Z,21.07
2018-04-29T02:02:50.437Z,21.90
2018-04-29T02:05:18.767Z,21.67
2018-04-29T02:07:47.126Z,20.17
2018-04-29T02:10:15.449Z,22.37
2018-04-29T02:12:43.887Z,22.03
2018-04-29T02:15:12.215Z,22.23
2018-04-29T02:17:40.534Z,23.33
2018-04-29T02:20:08.860Z,23.23
2018-04-29T02:22:37.188Z,21.47
2018-04-29T02:25:05.554Z,25.57
2018-04-29T02:27:33.868Z,24.20
2018-04-29T02:30:02.211Z,22.87
2018-04-29T02:32:30.546Z,24.80
2018-04-29T02:34:58.856Z,23.33
2018-04-29T02:37:27.180Z,21.97
2018-04-29T02:39:55.508Z,24.23
2018-04-29T02:42:23.850Z,23.13
2018-04-29T02:44:52.177Z,23.50
2018-04-29T02:47:20.516Z,23.50
2018-04-29T02:49:48.847Z,22.53
2018-04-29T02:52:17.186Z,21.53
2018-04-29T02:54:45.508Z,21.17
2018-04-29T02:57:13.831Z,21.67
2018-04-29T02:59:42.158Z,22.63
2018-04-29T03:02:10.482Z,21.13
2018-04-29T03:04:38.814Z,22.97
2018-04-29T03:07:08.345Z,21.53
2018-04-29T03:09:36.682Z,19.93
2018-04-29T03:12:05.054Z,19.93
2018-04-29T03:14:33.372Z,20.97
2018-04-29T03:17:01.692Z,21.43
2018-04-29T03:19:30.024Z,19.90
2018-04-29T03:21:58.345Z,20.17
2018-04-29T03:24:26.682Z,19.43
2018-04-29T03:26:55.008Z,20.33
2018-04-29T03:29:23.648Z,19.20
2018-04-29T03:31:51.970Z,19.57
2018-04-29T03:34:20.315Z,19.40
2018-04-29T03:36:48.626Z,19.67
2018-04-29T03:39:16.967Z,19.97
2018-04-29T03:41:45.299Z,20.43
2018-04-29T03:44:13.633Z,20.13
2018-04-29T03:46:41.944Z,19.57
2018-04-29T03:49:10.297Z,18.67
2018-04-29T03:51:38.605Z,18.50
2018-04-29T03:54:06.949Z,17.97
2018-04-29T03:56:35.305Z,16.47
2018-04-29T03:59:15.538Z,17.67
2018-04-29T04:01:55.687Z,16.67
2018-04-29T04:04:24.024Z,18.40
2018-04-29T04:06:52.349Z,17.07
2018-04-29T04:09:20.700Z,16.47
2018-04-29T04:11:49.023Z,16.00
2018-04-29T04:14:17.348Z,16.47
2018-04-29T04:16:45.708Z,16.37
2018-04-29T04:19:14.028Z,17.17
2018-04-29T04:21:42.367Z,16.27
2018-04-29T04:24:15.760Z,15.13
2018-04-29T04:26:47.251Z,16.60
2018-04-29T04:29:15.566Z,15.70
2018-04-29T04:31:43.916Z,16.33
2018-04-29T04:34:12.304Z,14.50
2018-04-29T04:36:40.604Z,15.17
2018-04-29T04:39:09.043Z,14.83
2018-04-29T04:41:37.374Z,15.27
2018-04-29T04:44:05.695Z,14.63
2018-04-29T04:46:34.072Z,14.73
2018-04-29T04:49:02.397Z,14.97
2018-04-29T04:51:30.711Z,14.90
2018-04-29T04:53:59.051Z,14.40
2018-04-29T04:56:27.370Z,14.33
2018-04-29T04:58:55.716Z,14.30
2018-04-29T05:01:24.028Z,11.90
2018-04-29T05:03:52.395Z,14.00
2018-04-29T05:06:20.751Z,13.77
2018-04-29T05:08:49.098Z,13.10
2018-04-29T05:11:17.409Z,13.00
2018-04-29T05:13:45.822Z,12.57
2018-04-29T05:16:14.067Z,11.87
2018-04-29T05:18:42.436Z,13.00
2018-04-29T05:21:10.787Z,13.17
2018-04-29T05:23:39.165Z,12.50
2018-04-29T05:26:07.496Z,12.90
2018-04-29T05:28:35.838Z,12.00
2018-04-29T05:31:04.172Z,12.83
2018-04-29T05:33:32.507Z,13.67
2018-04-29T05:36:00.846Z,12.23
2018-04-29T05:38:29.207Z,13.27
2018-04-29T05:40:57.558Z,11.87
2018-04-29T05:43:25.984Z,11.07
2018-04-29T05:45:54.328Z,11.80
2018-04-29T05:48:22.704Z,11.33
2018-04-29T05:50:51.079Z,11.27
2018-04-29T05:53:19.399Z,10.00
2018-04-29T05:55:47.748Z,10.47
2018-04-29T05:58:16.049Z,11.67
2018-04-29T06:00:44.416Z,10.97
2018-04-29T06:03:13.784Z,10.37
2018-04-29T06:05:42.110Z,11.50
2018-04-29T06:08:11.410Z,11.47
2018-04-29T06:10:39.786Z,11.03
2018-04-29T06:13:08.120Z,12.17
2018-04-29T06:15:36.487Z,14.13
2018-04-29T06:18:04.837Z,14.80
2018-04-29T06:20:34.033Z,13.57
2018-04-29T06:23:02.356Z,13.73
2018-04-29T06:25:30.691Z,15.50
2018-04-29T06:27:59.035Z,14.43
2018-04-29T06:30:27.378Z,15.43
2018-04-29T06:32:55.702Z,15.03
2018-04-29T06:35:24.089Z,13.77
2018-04-29T06:37:52.423Z,13.37
2018-04-29T06:40:20.775Z,14.07
2018-04-29T06:42:49.092Z,14.20
2018-04-29T06:45:17.428Z,14.20
2018-04-29T06:47:45.775Z,12.47
2018-04-29T06:50:14.136Z,11.33
2018-04-29T06:52:42.462Z,10.87
2018-04-29T06:55:10.788Z,11.33
2018-04-29T06:57:39.107Z,10.83
2018-04-29T07:00:07.451Z,10.97
2018-04-29T07:02:35.778Z,9.23
2018-04-29T07:05:04.095Z,8.73
2018-04-29T07:07:32.479Z,9.33
2018-04-29T07:10:00.782Z,8.57
2018-04-29T07:12:29.108Z,7.60
2018-04-29T07:14:57.454Z,8.07
2018-04-29T07:17:25.839Z,8.00
2018-04-29T07:19:54.283Z,7.73
2018-04-29T07:22:22.679Z,7.53
2018-04-29T07:24:51.000Z,8.17
2018-04-29T07:27:19.306Z,7.30
2018-04-29T07:29:48.686Z,7.50
2018-04-29T07:32:16.995Z,6.83
2018-04-29T07:34:45.326Z,6.57
2018-04-29T07:37:13.646Z,6.90
2018-04-29T07:39:41.976Z,7.10
2018-04-29T07:42:10.277Z,5.60
2018-04-29T07:44:38.607Z,6.90
2018-04-29T07:47:06.933Z,7.33
2018-04-29T07:49:35.288Z,7.23
2018-04-29T07:52:03.589Z,8.07
2018-04-29T07:54:31.952Z,7.47
2018-04-29T07:57:00.238Z,8.00
2018-04-29T07:59:28.560Z,7.93
2018-04-29T08:01:56.872Z,7.27
2018-04-29T08:04:25.342Z,9.03
2018-04-29T08:06:53.659Z,8.27
2018-04-29T08:09:21.979Z,7.77
2018-04-29T08:11:50.300Z,8.03
2018-04-29T08:14:18.622Z,8.63
2018-04-29T08:16:46.919Z,8.57
2018-04-29T08:19:15.289Z,9.93
2018-04-29T08:21:43.696Z,8.70
2018-04-29T08:24:12.028Z,8.33
2018-04-29T08:26:40.377Z,8.83
2018-04-29T08:29:08.701Z,9.60
2018-04-29T08:31:37.038Z,9.60
2018-04-29T08:34:05.353Z,9.43
2018-04-29T08:36:33.679Z,10.70
2018-04-29T08:39:02.013Z,9.83
2018-04-29T08:41:30.340Z,10.07
2018-04-29T08:43:58.647Z,9.63
2018-04-29T08:46:26.976Z,9.60
2018-04-29T08:48:55.291Z,9.70
2018-04-29T08:51:23.631Z,10.50
2018-04-29T08:53:51.946Z,10.53
2018-04-29T08:56:20.300Z,8.93
2018-04-29T08:58:48.608Z,9.83
2018-04-29T09:01:16.957Z,9.90
2018-04-29T09:03:45.306Z,10.17
2018-04-29T09:06:13.630Z,8.83
2018-04-29T09:08:41.946Z,9.40
2018-04-29T09:11:10.261Z,8.63
2018-04-29T09:13:38.630Z,8.03
2018-04-29T09:16:06.935Z,8.27
2018-04-29T09:18:35.274Z,8.70
2018-04-29T09:21:03.598Z,7.77
2018-04-29T09:23:31.927Z,8.33
2018-04-29T09:26:00.243Z,8.80
2018-04-29T09:28:28.550Z,8.87
2018-04-29T09:31:10.935Z,7.70
2018-04-29T09:33:49.129Z,6.90
2018-04-29T09:36:20.643Z,6.60
2018-04-29T09:38:48.964Z,6.30
2018-04-29T09:41:17.268Z,7.07
2018-04-29T09:43:45.716Z,6.03
2018-04-29T09:46:13.922Z,6.13
2018-04-29T09:48:42.374Z,7.27
2018-04-29T09:51:10.865Z,6.75
2018-04-29T09:53:39.276Z,6.57
2018-04-29T09:56:07.596Z,6.25
2018-04-29T09:58:35.912Z,6.05
2018-04-29T10:01:04.327Z,5.65
2018-04-29T10:03:32.588Z,5.32
2018-04-29T10:06:00.892Z,4.75
2018-04-29T10:08:29.264Z,4.40
2018-04-29T10:10:57.571Z,5.05
2018-04-29T10:13:25.897Z,4.97
2018-04-29T10:15:55.001Z,4.82
2018-04-29T10:18:24.313Z,4.93
2018-04-29T10:20:53.208Z,5.43
2018-04-29T10:23:21.551Z,4.28
2018-04-29T10:25:50.227Z,4.22
2018-04-29T10:28:18.538Z,5.10
2018-04-29T10:30:46.927Z,4.40
2018-04-29T10:33:15.290Z,4.05
2018-04-29T10:35:43.652Z,4.32
2018-04-29T10:38:11.995Z,3.95
2018-04-29T10:40:40.337Z,4.68
2018-04-29T10:43:08.659Z,5.03
2018-04-29T10:45:37.226Z,5.78
2018-04-29T10:48:05.544Z,4.07
2018-04-29T10:50:33.922Z,4.15
2018-04-29T10:53:02.232Z,5.07
2018-04-29T10:55:30.607Z,5.03
2018-04-29T10:57:58.986Z,5.03
2018-04-29T11:00:27.297Z,4.87
2018-04-29T11:02:55.866Z,4.62
2018-04-29T11:05:24.590Z,4.57
2018-04-29T11:07:52.973Z,4.50
2018-04-29T11:10:21.358Z,5.37
2018-04-29T11:12:49.750Z,5.12
2018-04-29T11:15:18.075Z,5.00
2018-04-29T11:17:46.396Z,5.65
2018-04-29T11:20:14.734Z,5.25
2018-04-29T11:22:43.063Z,5.20
2018-04-29T11:25:11.527Z,5.40
2018-04-29T11:27:39.864Z,4.95
2018-04-29T11:30:08.195Z,5.15
2018-04-29T11:32:36.527Z,5.70
2018-04-29T11:35:04.873Z,5.12
2018-04-29T11:37:33.194Z,4.32
2018-04-29T11:40:01.499Z,5.80
2018-04-29T11:42:29.855Z,5.55
2018-04-29T11:44:58.152Z,7.78
2018-04-29T11:47:26.476Z,4.80
2018-04-29T11:49:54.797Z,5.47
2018-04-29T11:52:23.191Z,5.53
2018-04-29T11:54:51.493Z,5.75
2018-04-29T11:57:19.815Z,5.40
2018-04-29T11:59:48.126Z,6.50
2018-04-29T12:02:16.480Z,5.93
2018-04-29T12:04:44.795Z,6.05
2018-04-29T12:07:13.147Z,6.78
2018-04-29T12:09:41.466Z,6.05
2018-04-29T12:12:09.800Z,5.95
2018-04-29T12:14:38.116Z,6.07
2018-04-29T12:17:06.437Z,5.85
2018-04-29T12:19:34.773Z,6.20
2018-04-29T12:22:03.293Z,5.95
2018-04-29T12:24:31.647Z,6.03
2018-04-29T12:26:59.966Z,7.25
2018-04-29T12:29:28.362Z,7.55
2018-04-29T12:31:56.697Z,6.68
2018-04-29T12:34:25.043Z,8.05
2018-04-29T12:36:53.431Z,6.05
2018-04-29T12:39:21.751Z,7.83
2018-04-29T12:41:50.141Z,7.77
2018-04-29T12:44:18.448Z,8.07
2018-04-29T12:46:46.911Z,7.03
2018-04-29T12:49:15.166Z,7.83
2018-04-29T12:51:43.489Z,7.00
2018-04-29T12:54:11.831Z,7.70
2018-04-29T12:56:40.153Z,8.10
2018-04-29T12:59:08.481Z,8.67
2018-04-29T13:01:36.811Z,7.87
2018-04-29T13:04:05.131Z,7.80
2018-04-29T13:06:33.443Z,7.37
2018-04-29T13:09:01.763Z,8.07
2018-04-29T13:11:30.126Z,8.27
2018-04-29T13:13:58.428Z,8.03
2018-04-29T13:16:26.754Z,7.43
2018-04-29T13:18:55.070Z,6.80
2018-04-29T13:21:23.384Z,7.90
2018-04-29T13:23:51.749Z,8.03
2018-04-29T13:26:20.083Z,8.47
2018-04-29T13:28:48.405Z,6.93
2018-04-29T13:31:16.722Z,7.57
2018-04-29T13:33:45.036Z,7.03
2018-04-29T13:36:13.351Z,7.80
2018-04-29T13:38:41.691Z,6.57
2018-04-29T13:41:09.979Z,7.10
2018-04-29T13:43:38.362Z,8.03
2018-04-29T13:46:06.679Z,7.37
2018-04-29T13:48:35.049Z,6.87
2018-04-29T13:51:03.371Z,7.67
2018-04-29T13:53:31.729Z,8.37
2018-04-29T13:56:00.567Z,6.97
2018-04-29T13:58:28.892Z,6.77
2018-04-29T14:00:57.265Z,6.87
2018-04-29T14:03:25.573Z,7.67
2018-04-29T14:05:53.881Z,7.43
2018-04-29T14:08:22.257Z,7.30
2018-04-29T14:10:50.591Z,6.50
2018-04-29T14:13:18.914Z,7.17
2018-04-29T14:15:47.256Z,7.33
2018-04-29T14:18:15.572Z,6.90
2018-04-29T14:20:43.916Z,7.53
2018-04-29T14:23:12.255Z,6.97
2018-04-29T14:25:40.595Z,7.73
2018-04-29T14:28:08.942Z,7.43
2018-04-29T14:30:37.272Z,6.40
2018-04-29T14:33:05.580Z,7.57
2018-04-29T14:35:33.928Z,7.07
2018-04-29T14:38:02.302Z,7.13
2018-04-29T14:40:30.599Z,7.10
2018-04-29T14:42:58.942Z,7.47
2018-04-29T14:45:27.258Z,7.07
2018-04-29T14:47:55.599Z,7.33
2018-04-29T14:50:23.922Z,6.77
2018-04-29T14:52:52.870Z,6.67
2018-04-29T14:55:21.689Z,7.37
2018-04-29T14:57:49.983Z,7.20
2018-04-29T15:00:18.321Z,7.53
2018-04-29T15:02:46.641Z,7.93
2018-04-29T15:05:14.993Z,6.87
2018-04-29T15:07:43.308Z,6.70
2018-04-29T15:10:11.592Z,7.60
2018-04-29T15:12:39.924Z,6.73
2018-04-29T15:15:08.384Z,6.93
2018-04-29T15:17:36.692Z,7.23
2018-04-29T15:20:05.002Z,7.77
2018-04-29T15:22:33.341Z,7.27
2018-04-29T15:25:01.677Z,7.77
2018-04-29T15:27:30.012Z,7.57
2018-04-29T15:29:58.364Z,6.83
2018-04-29T15:32:27.057Z,7.73
2018-04-29T15:34:55.413Z,6.90
2018-04-29T15:37:23.720Z,7.77
2018-04-29T15:39:52.148Z,7.50
2018-04-29T15:42:20.478Z,7.40
2018-04-29T15:44:48.792Z,6.67
2018-04-29T15:47:17.357Z,7.70
2018-04-29T15:49:45.662Z,6.77
2018-04-29T15:52:14.045Z,6.90
2018-04-29T15:54:42.378Z,6.70
2018-04-29T15:57:10.691Z,6.80
2018-04-29T15:59:39.055Z,7.70
2018-04-29T16:02:07.408Z,6.90
2018-04-29T16:04:35.719Z,7.20
2018-04-29T16:07:04.061Z,7.23
2018-04-29T16:09:32.389Z,7.37
2018-04-29T16:12:00.703Z,7.30
2018-04-29T16:14:29.049Z,7.90
2018-04-29T16:16:57.419Z,7.20
2018-04-29T16:19:25.781Z,7.23
2018-04-29T16:21:54.100Z,8.90
2018-04-29T16:24:22.440Z,8.23
2018-04-29T16:26:50.787Z,7.77
2018-04-29T16:29:19.093Z,8.10
2018-04-29T16:31:47.412Z,8.43
2018-04-29T16:34:15.736Z,7.70
2018-04-29T16:36:44.060Z,6.23
2018-04-29T16:39:12.355Z,8.07
2018-04-29T16:41:40.682Z,6.63
2018-04-29T16:44:09.002Z,7.47
2018-04-29T16:46:37.329Z,8.40
2018-04-29T16:49:05.622Z,7.10
2018-04-29T16:51:33.946Z,7.03
2018-04-29T16:54:02.265Z,7.57
2018-04-29T16:56:30.578Z,8.30
2018-04-29T16:58:58.897Z,8.60
2018-04-29T17:01:27.589Z,7.90
2018-04-29T17:03:55.882Z,7.80
2018-04-29T17:06:24.200Z,8.23
2018-04-29T17:08:52.549Z,8.00
2018-04-29T17:11:20.850Z,7.80
2018-04-29T17:13:49.166Z,7.97
2018-04-29T17:16:17.486Z,7.73
2018-04-29T17:18:45.786Z,7.67
2018-04-29T17:21:14.134Z,8.57
2018-04-29T17:23:42.460Z,7.73
2018-04-29T17:26:10.762Z,8.37
2018-04-29T17:28:39.449Z,8.73
2018-04-29T17:31:07.813Z,7.83
2018-04-29T17:33:36.132Z,9.23
2018-04-29T17:36:04.461Z,8.30
2018-04-29T17:38:32.807Z,7.67
2018-04-29T17:41:01.131Z,8.50
2018-04-29T17:43:29.454Z,9.87
2018-04-29T17:45:57.815Z,9.10
2018-04-29T17:48:26.195Z,10.13
2018-04-29T17:50:54.501Z,7.47
2018-04-29T17:53:22.832Z,8.00
2018-04-29T17:55:51.161Z,7.60
2018-04-29T17:58:19.505Z,6.73
2018-04-29T18:00:47.859Z,7.53
2018-04-29T18:03:16.183Z,7.20
2018-04-29T18:05:44.486Z,7.20
2018-04-29T18:08:12.803Z,7.17
2018-04-29T18:10:41.240Z,7.50
2018-04-29T18:13:09.545Z,8.27
2018-04-29T18:15:37.878Z,7.17
2018-04-29T18:18:06.192Z,8.07
2018-04-29T18:20:34.599Z,7.77
2018-04-29T18:23:02.957Z,7.13
2018-04-29T18:25:31.282Z,8.13
2018-04-29T18:27:59.609Z,8.00
2018-04-29T18:30:27.925Z,7.90
2018-04-29T18:32:56.237Z,8.60
2018-04-29T18:35:24.582Z,8.27
2018-04-29T18:37:52.890Z,7.63
2018-04-29T18:40:21.241Z,7.40
2018-04-29T18:42:49.587Z,8.10
2018-04-29T18:45:17.924Z,7.83
2018-04-29T18:47:46.258Z,7.87
2018-04-29T18:50:14.685Z,9.10
2018-04-29T18:52:43.010Z,8.30
2018-04-29T18:55:11.361Z,10.50
2018-04-29T18:57:39.703Z,10.57
2018-04-29T19:00:08.019Z,9.50
2018-04-29T19:02:36.364Z,8.80
2018-04-29T19:05:04.679Z,9.73
2018-04-29T19:07:33.019Z,10.73
2018-04-29T19:10:01.367Z,9.23
2018-04-29T19:12:29.703Z,9.43
2018-04-29T19:14:58.018Z,8.83
2018-04-29T19:17:26.347Z,8.87
2018-04-29T19:19:54.661Z,8.90
2018-04-29T19:22:23.000Z,10.00
2018-04-29T19:24:51.348Z,9.40
2018-04-29T19:27:19.675Z,9.53
2018-04-29T19:29:48.009Z,10.30
2018-04-29T19:32:16.357Z,9.17
2018-04-29T19:34:44.692Z,9.87
2018-04-29T19:37:13.011Z,9.90
2018-04-29T19:39:41.330Z,9.77
2018-04-29T19:42:09.662Z,10.00
2018-04-29T19:44:38.120Z,10.47
2018-04-29T19:47:06.461Z,9.83
2018-04-29T19:49:34.775Z,9.63
2018-04-29T19:52:03.099Z,10.73
2018-04-29T19:54:31.451Z,9.33
2018-04-29T19:56:59.778Z,10.03
2018-04-29T19:59:28.154Z,10.13
2018-04-29T20:01:56.482Z,10.93
2018-04-29T20:04:24.837Z,11.80
2018-04-29T20:06:53.158Z,10.83
2018-04-29T20:09:21.529Z,11.40
2018-04-29T20:11:49.846Z,11.40
2018-04-29T20:14:18.187Z,12.00
2018-04-29T20:16:46.565Z,12.33
2018-04-29T20:19:14.954Z,11.13
2018-04-29T20:21:43.339Z,11.60
2018-04-29T20:24:11.720Z,11.63
2018-04-29T20:26:40.088Z,13.57
2018-04-29T20:29:08.400Z,13.53
2018-04-29T20:31:36.769Z,12.33
2018-04-29T20:34:05.104Z,12.17
2018-04-29T20:36:33.426Z,12.27
2018-04-29T20:39:01.760Z,11.23
2018-04-29T20:41:30.109Z,11.90
2018-04-29T20:43:58.445Z,11.37
2018-04-29T20:46:26.780Z,13.03
2018-04-29T20:48:55.141Z,12.23
2018-04-29T20:51:23.466Z,12.27
2018-04-29T20:53:51.787Z,12.37
2018-04-29T20:56:20.134Z,13.13
2018-04-29T20:58:48.478Z,12.33
2018-04-29T21:01:16.821Z,11.90
2018-04-29T21:03:45.148Z,13.10
2018-04-29T21:06:13.483Z,12.67
2018-04-29T21:08:42.762Z,13.50
2018-04-29T21:11:11.083Z,12.60
2018-04-29T21:13:39.543Z,13.53
2018-04-29T21:16:07.990Z,12.87
2018-04-29T21:18:36.330Z,13.00
2018-04-29T21:21:04.654Z,17.20
2018-04-29T21:23:32.977Z,17.33
2018-04-29T21:26:01.303Z,15.63
2018-04-29T21:28:30.223Z,15.03
2018-04-29T21:30:58.534Z,15.27
2018-04-29T21:33:26.872Z,14.67
2018-04-29T21:35:55.331Z,15.43
2018-04-29T21:38:23.692Z,15.03
2018-04-29T21:40:52.003Z,14.80
2018-04-29T21:43:20.363Z,15.70
2018-04-29T21:45:48.686Z,15.33
2018-04-29T21:48:17.011Z,16.93
2018-04-29T21:50:45.356Z,16.80
2018-04-29T21:53:13.720Z,16.73
2018-04-29T21:55:42.040Z,16.53
2018-04-29T21:58:10.397Z,16.33
2018-04-29T22:00:39.164Z,18.67
2018-04-29T22:03:07.479Z,18.27
2018-04-29T22:05:35.812Z,20.33
2018-04-29T22:08:04.145Z,17.80
2018-04-29T22:10:32.471Z,17.53
2018-04-29T22:13:02.582Z,19.40
2018-04-29T22:15:30.923Z,16.43
2018-04-29T22:17:59.239Z,17.73
2018-04-29T22:20:27.573Z,16.13
2018-04-29T22:22:55.901Z,16.07
2018-04-29T22:25:24.230Z,15.47
2018-04-29T22:27:52.776Z,15.97
2018-04-29T22:30:21.096Z,16.50
2018-04-29T22:32:49.438Z,15.33
2018-04-29T22:35:17.783Z,15.77
2018-04-29T22:37:46.139Z,16.27
2018-04-29T22:40:14.474Z,15.13
2018-04-29T22:42:42.912Z,15.83
2018-04-29T22:45:11.238Z,17.43
2018-04-29T22:47:39.566Z,15.50
2018-04-29T22:50:07.896Z,15.80
2018-04-29T22:52:36.230Z,17.50
2018-04-29T22:55:04.554Z,15.90
2018-04-29T22:57:32.887Z,15.27
2018-04-29T23:00:01.217Z,17.93
2018-04-29T23:02:29.553Z,16.77
2018-04-29T23:04:57.899Z,16.87
2018-04-29T23:07:26.216Z,16.90
2018-04-29T23:09:54.564Z,16.73
2018-04-29T23:12:22.880Z,16.87
2018-04-29T23:14:51.216Z,16.23
2018-04-29T23:17:19.551Z,16.57
2018-04-29T23:19:47.883Z,15.47
2018-04-29T23:22:16.211Z,16.57
2018-04-29T23:24:44.526Z,16.40
2018-04-29T23:27:12.878Z,17.27
2018-04-29T23:29:41.226Z,17.63
2018-04-29T23:32:09.590Z,17.00
2018-04-29T23:34:37.915Z,17.90
2018-04-29T23:37:06.245Z,17.73
2018-04-29T23:39:34.574Z,17.67
2018-04-29T23:42:02.919Z,18.93
2018-04-29T23:44:31.268Z,17.23
2018-04-29T23:46:59.574Z,17.20
2018-04-29T23:49:27.897Z,19.43
2018-04-29T23:51:56.223Z,17.70
2018-04-29T23:54:24.540Z,19.40
2018-04-29T23:56:52.883Z,18.73
2018-04-29T23:59:21.194Z,19.63
